sensor_id;sensor_type;location;lat;lon;timestamp;P1;durP1;ratioP1;P2;durP2;ratioP2
52692;SDS011;68218;51.012;-1.648;2024-02-14T00:00:06;26.42;;;4.15;;
52692;SDS011;68218;51.012;-1.648;2024-02-14T00:02:38;34.78;;;4.10;;
52692;SDS011;68218;51.012;-1.648;2024-02-14T00:05:08;42.83;;;3.92;;
52692;SDS011;68218;51.012;-1.648;2024-02-14T00:07:35;35.70;;;4.40;;
52692;SDS011;68218;51.012;-1.648;2024-02-14T00:10:04;41.40;;;5.43;;
52692;SDS011;68218;51.012;-1.648;2024-02-14T00:12:31;41.28;;;5.30;;
52692;SDS011;68218;51.012;-1.648;2024-02-14T00:14:57;40.72;;;4.97;;
52692;SDS011;68218;51.012;-1.648;2024-02-14T00:17:23;35.72;;;4.75;;
52692;SDS011;68218;51.012;-1.648;2024-02-14T00:19:48;39.55;;;4.07;;
52692;SDS011;68218;51.012;-1.648;2024-02-14T00:22:13;37.83;;;3.83;;
52692;SDS011;68218;51.012;-1.648;2024-02-14T00:24:39;43.78;;;4.90;;
52692;SDS011;68218;51.012;-1.648;2024-02-14T00:27:04;36.05;;;4.15;;
52692;SDS011;68218;51.012;-1.648;2024-02-14T00:29:29;32.47;;;3.90;;
52692;SDS011;68218;51.012;-1.648;2024-02-14T00:31:55;29.40;;;4.22;;
52692;SDS011;68218;51.012;-1.648;2024-02-14T00:34:20;35.42;;;4.82;;
52692;SDS011;68218;51.012;-1.648;2024-02-14T00:36:46;30.60;;;4.00;;
52692;SDS011;68218;51.012;-1.648;2024-02-14T00:39:11;39.63;;;4.38;;
52692;SDS011;68218;51.012;-1.648;2024-02-14T00:41:37;31.25;;;4.05;;
52692;SDS011;68218;51.012;-1.648;2024-02-14T00:44:02;26.15;;;4.20;;
52692;SDS011;68218;51.012;-1.648;2024-02-14T00:46:30;29.38;;;4.03;;
52692;SDS011;68218;51.012;-1.648;2024-02-14T00:48:56;31.85;;;4.53;;
52692;SDS011;68218;51.012;-1.648;2024-02-14T00:51:21;29.60;;;4.13;;
52692;SDS011;68218;51.012;-1.648;2024-02-14T00:53:47;32.38;;;4.90;;
52692;SDS011;68218;51.012;-1.648;2024-02-14T00:56:12;27.98;;;3.53;;
52692;SDS011;68218;51.012;-1.648;2024-02-14T00:58:37;30.75;;;4.32;;
52692;SDS011;68218;51.012;-1.648;2024-02-14T01:01:04;35.13;;;4.63;;
52692;SDS011;68218;51.012;-1.648;2024-02-14T01:03:29;30.63;;;4.75;;
52692;SDS011;68218;51.012;-1.648;2024-02-14T01:05:55;34.83;;;4.35;;
52692;SDS011;68218;51.012;-1.648;2024-02-14T01:08:20;33.05;;;4.72;;
52692;SDS011;68218;51.012;-1.648;2024-02-14T01:10:46;38.03;;;4.95;;
52692;SDS011;68218;51.012;-1.648;2024-02-14T01:13:11;37.25;;;4.68;;
52692;SDS011;68218;51.012;-1.648;2024-02-14T01:15:37;34.78;;;4.68;;
52692;SDS011;68218;51.012;-1.648;2024-02-14T01:18:02;31.65;;;4.57;;
52692;SDS011;68218;51.012;-1.648;2024-02-14T01:20:28;26.63;;;3.90;;
52692;SDS011;68218;51.012;-1.648;2024-02-14T01:22:54;21.90;;;3.72;;
52692;SDS011;68218;51.012;-1.648;2024-02-14T01:25:19;24.63;;;3.50;;
52692;SDS011;68218;51.012;-1.648;2024-02-14T01:27:44;15.73;;;2.60;;
52692;SDS011;68218;51.012;-1.648;2024-02-14T01:30:10;18.75;;;2.72;;
52692;SDS011;68218;51.012;-1.648;2024-02-14T01:32:36;14.55;;;1.88;;
52692;SDS011;68218;51.012;-1.648;2024-02-14T01:35:02;16.65;;;2.25;;
52692;SDS011;68218;51.012;-1.648;2024-02-14T01:37:28;13.45;;;2.13;;
52692;SDS011;68218;51.012;-1.648;2024-02-14T01:39:54;14.07;;;2.03;;
52692;SDS011;68218;51.012;-1.648;2024-02-14T01:42:19;14.48;;;1.95;;
52692;SDS011;68218;51.012;-1.648;2024-02-14T01:44:45;14.80;;;2.50;;
52692;SDS011;68218;51.012;-1.648;2024-02-14T01:47:10;19.50;;;1.92;;
52692;SDS011;68218;51.012;-1.648;2024-02-14T01:49:37;16.38;;;2.38;;
52692;SDS011;68218;51.012;-1.648;2024-02-14T01:52:03;15.90;;;2.10;;
52692;SDS011;68218;51.012;-1.648;2024-02-14T01:54:30;15.30;;;2.53;;
52692;SDS011;68218;51.012;-1.648;2024-02-14T01:56:56;16.52;;;2.45;;
52692;SDS011;68218;51.012;-1.648;2024-02-14T01:59:23;18.10;;;2.28;;
52692;SDS011;68218;51.012;-1.648;2024-02-14T02:01:49;22.42;;;3.00;;
52692;SDS011;68218;51.012;-1.648;2024-02-14T02:04:16;18.30;;;2.70;;
52692;SDS011;68218;51.012;-1.648;2024-02-14T02:06:43;26.25;;;3.25;;
52692;SDS011;68218;51.012;-1.648;2024-02-14T02:09:09;26.60;;;3.72;;
52692;SDS011;68218;51.012;-1.648;2024-02-14T02:14:32;22.30;;;3.47;;
52692;SDS011;68218;51.012;-1.648;2024-02-14T02:16:58;21.60;;;3.78;;
52692;SDS011;68218;51.012;-1.648;2024-02-14T02:19:23;23.60;;;3.35;;
52692;SDS011;68218;51.012;-1.648;2024-02-14T02:21:49;21.92;;;3.10;;
52692;SDS011;68218;51.012;-1.648;2024-02-14T02:24:14;18.83;;;2.63;;
52692;SDS011;68218;51.012;-1.648;2024-02-14T02:26:40;18.23;;;2.70;;
52692;SDS011;68218;51.012;-1.648;2024-02-14T02:29:05;18.73;;;3.03;;
52692;SDS011;68218;51.012;-1.648;2024-02-14T02:31:31;16.90;;;2.88;;
52692;SDS011;68218;51.012;-1.648;2024-02-14T02:33:57;26.15;;;3.15;;
52692;SDS011;68218;51.012;-1.648;2024-02-14T02:36:22;20.17;;;3.28;;
52692;SDS011;68218;51.012;-1.648;2024-02-14T02:38:49;19.73;;;2.25;;
52692;SDS011;68218;51.012;-1.648;2024-02-14T02:41:15;21.17;;;2.97;;
52692;SDS011;68218;51.012;-1.648;2024-02-14T02:43:40;21.05;;;2.88;;
52692;SDS011;68218;51.012;-1.648;2024-02-14T02:46:06;19.85;;;2.97;;
52692;SDS011;68218;51.012;-1.648;2024-02-14T02:48:34;25.02;;;2.95;;
52692;SDS011;68218;51.012;-1.648;2024-02-14T02:50:59;23.48;;;3.72;;
52692;SDS011;68218;51.012;-1.648;2024-02-14T02:53:25;32.92;;;3.10;;
52692;SDS011;68218;51.012;-1.648;2024-02-14T02:55:50;21.95;;;3.10;;
52692;SDS011;68218;51.012;-1.648;2024-02-14T02:58:16;27.92;;;3.08;;
52692;SDS011;68218;51.012;-1.648;2024-02-14T03:00:42;21.35;;;3.38;;
52692;SDS011;68218;51.012;-1.648;2024-02-14T03:03:07;25.92;;;3.28;;
52692;SDS011;68218;51.012;-1.648;2024-02-14T03:05:33;24.67;;;3.40;;
52692;SDS011;68218;51.012;-1.648;2024-02-14T03:07:59;23.17;;;3.33;;
52692;SDS011;68218;51.012;-1.648;2024-02-14T03:10:25;31.85;;;3.50;;
52692;SDS011;68218;51.012;-1.648;2024-02-14T03:12:51;28.20;;;3.53;;
52692;SDS011;68218;51.012;-1.648;2024-02-14T03:15:17;26.40;;;4.40;;
52692;SDS011;68218;51.012;-1.648;2024-02-14T03:17:43;29.38;;;4.53;;
52692;SDS011;68218;51.012;-1.648;2024-02-14T03:20:09;28.95;;;4.40;;
52692;SDS011;68218;51.012;-1.648;2024-02-14T03:22:37;27.95;;;4.65;;
52692;SDS011;68218;51.012;-1.648;2024-02-14T03:25:07;35.47;;;4.32;;
52692;SDS011;68218;51.012;-1.648;2024-02-14T03:27:33;29.88;;;4.50;;
52692;SDS011;68218;51.012;-1.648;2024-02-14T03:29:59;36.10;;;4.38;;
52692;SDS011;68218;51.012;-1.648;2024-02-14T03:32:27;37.35;;;4.30;;
52692;SDS011;68218;51.012;-1.648;2024-02-14T03:34:52;36.45;;;4.85;;
52692;SDS011;68218;51.012;-1.648;2024-02-14T03:37:18;33.03;;;4.88;;
52692;SDS011;68218;51.012;-1.648;2024-02-14T03:39:43;35.03;;;4.72;;
52692;SDS011;68218;51.012;-1.648;2024-02-14T03:42:10;30.30;;;4.70;;
52692;SDS011;68218;51.012;-1.648;2024-02-14T03:44:36;38.55;;;4.57;;
52692;SDS011;68218;51.012;-1.648;2024-02-14T03:47:03;32.58;;;4.57;;
52692;SDS011;68218;51.012;-1.648;2024-02-14T03:49:29;38.35;;;4.63;;
52692;SDS011;68218;51.012;-1.648;2024-02-14T03:51:55;46.17;;;5.18;;
52692;SDS011;68218;51.012;-1.648;2024-02-14T03:54:21;28.10;;;4.03;;
52692;SDS011;68218;51.012;-1.648;2024-02-14T03:56:46;25.13;;;4.07;;
52692;SDS011;68218;51.012;-1.648;2024-02-14T03:59:12;34.28;;;4.30;;
52692;SDS011;68218;51.012;-1.648;2024-02-14T04:01:37;25.67;;;3.60;;
52692;SDS011;68218;51.012;-1.648;2024-02-14T04:04:03;28.42;;;3.78;;
52692;SDS011;68218;51.012;-1.648;2024-02-14T04:06:29;29.17;;;4.03;;
52692;SDS011;68218;51.012;-1.648;2024-02-14T04:08:56;27.50;;;4.15;;
52692;SDS011;68218;51.012;-1.648;2024-02-14T04:11:22;28.90;;;4.95;;
52692;SDS011;68218;51.012;-1.648;2024-02-14T04:13:48;29.40;;;5.57;;
52692;SDS011;68218;51.012;-1.648;2024-02-14T04:16:13;26.45;;;4.38;;
52692;SDS011;68218;51.012;-1.648;2024-02-14T04:18:39;26.83;;;4.75;;
52692;SDS011;68218;51.012;-1.648;2024-02-14T04:21:07;31.38;;;4.93;;
52692;SDS011;68218;51.012;-1.648;2024-02-14T04:23:32;23.85;;;3.67;;
52692;SDS011;68218;51.012;-1.648;2024-02-14T04:25:58;23.02;;;3.85;;
52692;SDS011;68218;51.012;-1.648;2024-02-14T04:28:23;24.77;;;3.55;;
52692;SDS011;68218;51.012;-1.648;2024-02-14T04:30:48;21.35;;;3.30;;
52692;SDS011;68218;51.012;-1.648;2024-02-14T04:33:14;27.35;;;3.55;;
52692;SDS011;68218;51.012;-1.648;2024-02-14T04:35:39;30.20;;;3.95;;
52692;SDS011;68218;51.012;-1.648;2024-02-14T04:38:04;28.60;;;3.53;;
52692;SDS011;68218;51.012;-1.648;2024-02-14T04:40:30;22.58;;;3.40;;
52692;SDS011;68218;51.012;-1.648;2024-02-14T04:42:55;29.35;;;3.53;;
52692;SDS011;68218;51.012;-1.648;2024-02-14T04:45:21;20.42;;;3.00;;
52692;SDS011;68218;51.012;-1.648;2024-02-14T04:47:46;23.85;;;3.05;;
52692;SDS011;68218;51.012;-1.648;2024-02-14T04:50:11;18.15;;;2.33;;
52692;SDS011;68218;51.012;-1.648;2024-02-14T04:52:37;14.15;;;1.90;;
52692;SDS011;68218;51.012;-1.648;2024-02-14T04:55:02;17.52;;;2.00;;
52692;SDS011;68218;51.012;-1.648;2024-02-14T04:57:28;14.10;;;1.85;;
52692;SDS011;68218;51.012;-1.648;2024-02-14T04:59:54;13.85;;;1.70;;
52692;SDS011;68218;51.012;-1.648;2024-02-14T05:02:19;10.98;;;1.30;;
52692;SDS011;68218;51.012;-1.648;2024-02-14T05:04:44;9.18;;;1.20;;
52692;SDS011;68218;51.012;-1.648;2024-02-14T05:07:10;8.00;;;1.40;;
52692;SDS011;68218;51.012;-1.648;2024-02-14T05:09:35;8.20;;;1.25;;
52692;SDS011;68218;51.012;-1.648;2024-02-14T05:12:01;8.40;;;1.25;;
52692;SDS011;68218;51.012;-1.648;2024-02-14T05:14:26;9.00;;;1.15;;
52692;SDS011;68218;51.012;-1.648;2024-02-14T05:16:55;8.23;;;0.82;;
52692;SDS011;68218;51.012;-1.648;2024-02-14T05:19:20;9.80;;;0.90;;
52692;SDS011;68218;51.012;-1.648;2024-02-14T05:21:46;12.23;;;1.15;;
52692;SDS011;68218;51.012;-1.648;2024-02-14T05:24:12;8.75;;;0.90;;
52692;SDS011;68218;51.012;-1.648;2024-02-14T05:26:37;6.70;;;1.10;;
52692;SDS011;68218;51.012;-1.648;2024-02-14T05:29:02;6.88;;;0.80;;
52692;SDS011;68218;51.012;-1.648;2024-02-14T05:31:29;4.30;;;0.60;;
52692;SDS011;68218;51.012;-1.648;2024-02-14T05:34:09;11.13;;;1.10;;
52692;SDS011;68218;51.012;-1.648;2024-02-14T05:36:35;5.78;;;0.80;;
52692;SDS011;68218;51.012;-1.648;2024-02-14T05:39:01;5.28;;;0.70;;
52692;SDS011;68218;51.012;-1.648;2024-02-14T05:41:27;6.47;;;0.80;;
52692;SDS011;68218;51.012;-1.648;2024-02-14T05:43:52;5.55;;;0.70;;
52692;SDS011;68218;51.012;-1.648;2024-02-14T05:46:17;5.30;;;0.95;;
52692;SDS011;68218;51.012;-1.648;2024-02-14T05:48:45;3.50;;;0.80;;
52692;SDS011;68218;51.012;-1.648;2024-02-14T05:51:11;6.40;;;1.02;;
52692;SDS011;68218;51.012;-1.648;2024-02-14T05:53:36;9.40;;;1.25;;
52692;SDS011;68218;51.012;-1.648;2024-02-14T05:56:01;11.02;;;1.80;;
52692;SDS011;68218;51.012;-1.648;2024-02-14T05:58:27;13.30;;;2.22;;
52692;SDS011;68218;51.012;-1.648;2024-02-14T06:00:53;19.02;;;2.40;;
52692;SDS011;68218;51.012;-1.648;2024-02-14T06:03:19;12.23;;;2.20;;
52692;SDS011;68218;51.012;-1.648;2024-02-14T06:05:44;13.90;;;2.38;;
52692;SDS011;68218;51.012;-1.648;2024-02-14T06:08:09;13.30;;;2.47;;
52692;SDS011;68218;51.012;-1.648;2024-02-14T06:10:35;14.00;;;2.50;;
52692;SDS011;68218;51.012;-1.648;2024-02-14T06:13:00;18.00;;;2.50;;
52692;SDS011;68218;51.012;-1.648;2024-02-14T06:15:25;11.20;;;1.92;;
52692;SDS011;68218;51.012;-1.648;2024-02-14T06:17:51;9.13;;;1.80;;
52692;SDS011;68218;51.012;-1.648;2024-02-14T06:20:16;16.50;;;2.05;;
52692;SDS011;68218;51.012;-1.648;2024-02-14T06:22:42;10.77;;;1.73;;
52692;SDS011;68218;51.012;-1.648;2024-02-14T06:25:07;12.95;;;1.77;;
52692;SDS011;68218;51.012;-1.648;2024-02-14T06:27:32;10.15;;;1.65;;
52692;SDS011;68218;51.012;-1.648;2024-02-14T06:29:58;10.95;;;1.60;;
52692;SDS011;68218;51.012;-1.648;2024-02-14T06:32:24;10.13;;;1.50;;
52692;SDS011;68218;51.012;-1.648;2024-02-14T06:34:50;12.95;;;1.70;;
52692;SDS011;68218;51.012;-1.648;2024-02-14T06:37:15;9.98;;;1.40;;
52692;SDS011;68218;51.012;-1.648;2024-02-14T06:39:40;16.67;;;2.35;;
52692;SDS011;68218;51.012;-1.648;2024-02-14T06:42:06;8.77;;;1.50;;
52692;SDS011;68218;51.012;-1.648;2024-02-14T06:44:31;11.45;;;1.90;;
52692;SDS011;68218;51.012;-1.648;2024-02-14T06:46:56;16.60;;;2.00;;
52692;SDS011;68218;51.012;-1.648;2024-02-14T06:49:22;11.15;;;3.17;;
52692;SDS011;68218;51.012;-1.648;2024-02-14T06:51:48;10.02;;;2.03;;
52692;SDS011;68218;51.012;-1.648;2024-02-14T06:54:13;12.40;;;2.05;;
52692;SDS011;68218;51.012;-1.648;2024-02-14T06:56:38;12.10;;;2.65;;
52692;SDS011;68218;51.012;-1.648;2024-02-14T06:59:04;14.95;;;2.83;;
52692;SDS011;68218;51.012;-1.648;2024-02-14T07:01:29;9.85;;;1.98;;
52692;SDS011;68218;51.012;-1.648;2024-02-14T07:03:55;11.85;;;2.20;;
52692;SDS011;68218;51.012;-1.648;2024-02-14T07:06:21;13.07;;;2.40;;
52692;SDS011;68218;51.012;-1.648;2024-02-14T07:08:47;10.25;;;2.20;;
52692;SDS011;68218;51.012;-1.648;2024-02-14T07:11:13;17.23;;;2.30;;
52692;SDS011;68218;51.012;-1.648;2024-02-14T07:13:40;9.63;;;2.10;;
52692;SDS011;68218;51.012;-1.648;2024-02-14T07:16:05;13.07;;;2.15;;
52692;SDS011;68218;51.012;-1.648;2024-02-14T07:18:31;10.18;;;1.95;;
52692;SDS011;68218;51.012;-1.648;2024-02-14T07:20:56;17.90;;;3.35;;
52692;SDS011;68218;51.012;-1.648;2024-02-14T07:23:21;13.43;;;2.55;;
52692;SDS011;68218;51.012;-1.648;2024-02-14T07:25:47;17.50;;;2.10;;
52692;SDS011;68218;51.012;-1.648;2024-02-14T07:28:12;21.63;;;2.83;;
52692;SDS011;68218;51.012;-1.648;2024-02-14T07:30:38;10.95;;;2.00;;
52692;SDS011;68218;51.012;-1.648;2024-02-14T07:33:03;16.75;;;2.13;;
52692;SDS011;68218;51.012;-1.648;2024-02-14T07:35:29;18.60;;;2.80;;
52692;SDS011;68218;51.012;-1.648;2024-02-14T07:37:54;15.40;;;2.28;;
52692;SDS011;68218;51.012;-1.648;2024-02-14T07:40:20;12.30;;;1.98;;
52692;SDS011;68218;51.012;-1.648;2024-02-14T07:42:46;11.88;;;2.38;;
52692;SDS011;68218;51.012;-1.648;2024-02-14T07:45:11;10.65;;;1.80;;
52692;SDS011;68218;51.012;-1.648;2024-02-14T07:47:37;9.65;;;1.27;;
52692;SDS011;68218;51.012;-1.648;2024-02-14T07:50:03;12.80;;;1.98;;
52692;SDS011;68218;51.012;-1.648;2024-02-14T07:52:29;7.95;;;0.93;;
52692;SDS011;68218;51.012;-1.648;2024-02-14T07:54:54;6.93;;;1.20;;
52692;SDS011;68218;51.012;-1.648;2024-02-14T07:57:21;8.68;;;1.17;;
52692;SDS011;68218;51.012;-1.648;2024-02-14T07:59:48;4.28;;;0.73;;
52692;SDS011;68218;51.012;-1.648;2024-02-14T08:02:13;10.65;;;1.00;;
52692;SDS011;68218;51.012;-1.648;2024-02-14T08:04:38;10.13;;;1.10;;
52692;SDS011;68218;51.012;-1.648;2024-02-14T08:07:04;6.47;;;0.75;;
52692;SDS011;68218;51.012;-1.648;2024-02-14T08:09:29;5.60;;;0.70;;
52692;SDS011;68218;51.012;-1.648;2024-02-14T08:11:55;5.72;;;0.65;;
52692;SDS011;68218;51.012;-1.648;2024-02-14T08:14:20;6.75;;;0.70;;
52692;SDS011;68218;51.012;-1.648;2024-02-14T08:16:46;5.93;;;0.77;;
52692;SDS011;68218;51.012;-1.648;2024-02-14T08:19:11;4.93;;;0.90;;
52692;SDS011;68218;51.012;-1.648;2024-02-14T08:21:36;4.18;;;0.70;;
52692;SDS011;68218;51.012;-1.648;2024-02-14T08:24:02;6.07;;;0.70;;
52692;SDS011;68218;51.012;-1.648;2024-02-14T08:26:27;2.70;;;0.50;;
52692;SDS011;68218;51.012;-1.648;2024-02-14T08:28:53;2.13;;;0.68;;
52692;SDS011;68218;51.012;-1.648;2024-02-14T08:31:19;2.65;;;0.50;;
52692;SDS011;68218;51.012;-1.648;2024-02-14T08:33:45;5.35;;;0.85;;
52692;SDS011;68218;51.012;-1.648;2024-02-14T08:36:10;4.25;;;0.57;;
52692;SDS011;68218;51.012;-1.648;2024-02-14T08:38:35;3.65;;;0.65;;
52692;SDS011;68218;51.012;-1.648;2024-02-14T08:41:04;3.20;;;0.80;;
52692;SDS011;68218;51.012;-1.648;2024-02-14T08:43:30;3.83;;;0.73;;
52692;SDS011;68218;51.012;-1.648;2024-02-14T08:45:55;1.83;;;0.70;;
52692;SDS011;68218;51.012;-1.648;2024-02-14T08:48:21;4.38;;;0.60;;
52692;SDS011;68218;51.012;-1.648;2024-02-14T08:50:47;5.97;;;1.00;;
52692;SDS011;68218;51.012;-1.648;2024-02-14T08:53:13;2.80;;;0.80;;
52692;SDS011;68218;51.012;-1.648;2024-02-14T08:55:39;2.95;;;0.98;;
52692;SDS011;68218;51.012;-1.648;2024-02-14T08:58:05;4.13;;;1.00;;
52692;SDS011;68218;51.012;-1.648;2024-02-14T09:00:31;4.72;;;0.85;;
52692;SDS011;68218;51.012;-1.648;2024-02-14T09:03:00;7.90;;;0.80;;
52692;SDS011;68218;51.012;-1.648;2024-02-14T09:05:25;4.05;;;0.70;;
52692;SDS011;68218;51.012;-1.648;2024-02-14T09:07:52;6.18;;;1.10;;
52692;SDS011;68218;51.012;-1.648;2024-02-14T09:10:18;5.25;;;1.10;;
52692;SDS011;68218;51.012;-1.648;2024-02-14T09:12:43;10.05;;;1.30;;
52692;SDS011;68218;51.012;-1.648;2024-02-14T09:15:09;9.00;;;1.63;;
52692;SDS011;68218;51.012;-1.648;2024-02-14T09:17:34;10.23;;;1.38;;
52692;SDS011;68218;51.012;-1.648;2024-02-14T09:19:59;7.60;;;1.45;;
52692;SDS011;68218;51.012;-1.648;2024-02-14T09:22:26;8.35;;;1.17;;
52692;SDS011;68218;51.012;-1.648;2024-02-14T09:24:51;8.55;;;1.90;;
52692;SDS011;68218;51.012;-1.648;2024-02-14T09:27:17;4.60;;;1.27;;
52692;SDS011;68218;51.012;-1.648;2024-02-14T09:29:42;9.02;;;1.50;;
52692;SDS011;68218;51.012;-1.648;2024-02-14T09:32:08;9.63;;;1.10;;
52692;SDS011;68218;51.012;-1.648;2024-02-14T09:34:34;6.25;;;1.33;;
52692;SDS011;68218;51.012;-1.648;2024-02-14T09:36:59;8.10;;;1.40;;
52692;SDS011;68218;51.012;-1.648;2024-02-14T09:39:25;11.48;;;1.50;;
52692;SDS011;68218;51.012;-1.648;2024-02-14T09:41:51;10.73;;;1.70;;
52692;SDS011;68218;51.012;-1.648;2024-02-14T09:44:20;13.00;;;1.58;;
52692;SDS011;68218;51.012;-1.648;2024-02-14T09:46:46;9.52;;;2.55;;
52692;SDS011;68218;51.012;-1.648;2024-02-14T09:49:13;8.05;;;1.95;;
52692;SDS011;68218;51.012;-1.648;2024-02-14T09:51:40;10.82;;;1.80;;
52692;SDS011;68218;51.012;-1.648;2024-02-14T09:54:07;18.90;;;2.67;;
52692;SDS011;68218;51.012;-1.648;2024-02-14T09:56:33;16.17;;;2.67;;
52692;SDS011;68218;51.012;-1.648;2024-02-14T09:58:58;12.35;;;2.10;;
52692;SDS011;68218;51.012;-1.648;2024-02-14T10:01:27;14.02;;;2.50;;
52692;SDS011;68218;51.012;-1.648;2024-02-14T10:03:53;11.23;;;2.30;;
52692;SDS011;68218;51.012;-1.648;2024-02-14T10:06:20;10.95;;;2.00;;
52692;SDS011;68218;51.012;-1.648;2024-02-14T10:08:49;8.20;;;2.33;;
52692;SDS011;68218;51.012;-1.648;2024-02-14T10:11:16;12.68;;;2.20;;
52692;SDS011;68218;51.012;-1.648;2024-02-14T10:13:45;12.93;;;2.53;;
52692;SDS011;68218;51.012;-1.648;2024-02-14T10:16:12;11.23;;;2.00;;
52692;SDS011;68218;51.012;-1.648;2024-02-14T10:18:37;11.75;;;2.17;;
52692;SDS011;68218;51.012;-1.648;2024-02-14T10:21:04;14.50;;;2.03;;
52692;SDS011;68218;51.012;-1.648;2024-02-14T10:23:29;15.73;;;2.17;;
52692;SDS011;68218;51.012;-1.648;2024-02-14T10:25:55;12.20;;;2.47;;
52692;SDS011;68218;51.012;-1.648;2024-02-14T10:28:22;12.23;;;2.25;;
52692;SDS011;68218;51.012;-1.648;2024-02-14T10:30:48;14.02;;;2.00;;
52692;SDS011;68218;51.012;-1.648;2024-02-14T10:33:17;14.63;;;2.13;;
52692;SDS011;68218;51.012;-1.648;2024-02-14T10:35:44;10.25;;;2.00;;
52692;SDS011;68218;51.012;-1.648;2024-02-14T10:38:10;8.82;;;2.08;;
52692;SDS011;68218;51.012;-1.648;2024-02-14T10:40:36;12.95;;;2.35;;
52692;SDS011;68218;51.012;-1.648;2024-02-14T10:43:06;9.75;;;2.25;;
52692;SDS011;68218;51.012;-1.648;2024-02-14T10:45:31;15.15;;;2.40;;
52692;SDS011;68218;51.012;-1.648;2024-02-14T10:47:57;9.13;;;2.20;;
52692;SDS011;68218;51.012;-1.648;2024-02-14T10:50:28;13.50;;;2.28;;
52692;SDS011;68218;51.012;-1.648;2024-02-14T10:52:58;8.00;;;1.95;;
52692;SDS011;68218;51.012;-1.648;2024-02-14T10:55:29;12.18;;;3.45;;
52692;SDS011;68218;51.012;-1.648;2024-02-14T10:57:56;16.63;;;3.08;;
52692;SDS011;68218;51.012;-1.648;2024-02-14T11:00:22;15.98;;;2.53;;
52692;SDS011;68218;51.012;-1.648;2024-02-14T11:02:49;17.40;;;2.75;;
52692;SDS011;68218;51.012;-1.648;2024-02-14T11:05:16;13.15;;;2.95;;
52692;SDS011;68218;51.012;-1.648;2024-02-14T11:07:45;13.52;;;2.40;;
52692;SDS011;68218;51.012;-1.648;2024-02-14T11:10:20;10.90;;;2.10;;
52692;SDS011;68218;51.012;-1.648;2024-02-14T11:12:47;8.88;;;2.08;;
52692;SDS011;68218;51.012;-1.648;2024-02-14T11:15:22;9.77;;;1.83;;
52692;SDS011;68218;51.012;-1.648;2024-02-14T11:18:02;9.77;;;1.23;;
52692;SDS011;68218;51.012;-1.648;2024-02-14T11:20:32;11.00;;;1.67;;
52692;SDS011;68218;51.012;-1.648;2024-02-14T11:23:05;12.68;;;1.40;;
52692;SDS011;68218;51.012;-1.648;2024-02-14T11:25:34;7.40;;;1.40;;
52692;SDS011;68218;51.012;-1.648;2024-02-14T11:28:23;5.95;;;1.38;;
52692;SDS011;68218;51.012;-1.648;2024-02-14T11:30:50;11.98;;;1.88;;
52692;SDS011;68218;51.012;-1.648;2024-02-14T11:33:22;9.07;;;1.25;;
52692;SDS011;68218;51.012;-1.648;2024-02-14T11:35:52;7.75;;;1.60;;
52692;SDS011;68218;51.012;-1.648;2024-02-14T11:38:19;5.28;;;1.73;;
52692;SDS011;68218;51.012;-1.648;2024-02-14T11:40:45;10.23;;;1.60;;
52692;SDS011;68218;51.012;-1.648;2024-02-14T11:43:11;9.38;;;1.75;;
52692;SDS011;68218;51.012;-1.648;2024-02-14T11:45:43;9.48;;;1.95;;
52692;SDS011;68218;51.012;-1.648;2024-02-14T11:48:11;8.77;;;1.35;;
52692;SDS011;68218;51.012;-1.648;2024-02-14T11:50:40;9.48;;;1.33;;
52692;SDS011;68218;51.012;-1.648;2024-02-14T11:53:08;7.10;;;1.50;;
52692;SDS011;68218;51.012;-1.648;2024-02-14T11:55:36;9.55;;;1.33;;
52692;SDS011;68218;51.012;-1.648;2024-02-14T11:58:03;7.13;;;1.70;;
52692;SDS011;68218;51.012;-1.648;2024-02-14T12:00:38;8.18;;;1.50;;
52692;SDS011;68218;51.012;-1.648;2024-02-14T12:03:09;9.15;;;1.90;;
52692;SDS011;68218;51.012;-1.648;2024-02-14T12:05:37;10.45;;;1.77;;
52692;SDS011;68218;51.012;-1.648;2024-02-14T12:08:04;9.63;;;2.05;;
52692;SDS011;68218;51.012;-1.648;2024-02-14T12:10:31;14.77;;;1.98;;
52692;SDS011;68218;51.012;-1.648;2024-02-14T12:12:57;12.75;;;2.13;;
52692;SDS011;68218;51.012;-1.648;2024-02-14T12:15:25;10.05;;;2.40;;
52692;SDS011;68218;51.012;-1.648;2024-02-14T12:17:51;7.95;;;2.28;;
52692;SDS011;68218;51.012;-1.648;2024-02-14T12:20:21;12.43;;;2.28;;
52692;SDS011;68218;51.012;-1.648;2024-02-14T12:22:51;9.55;;;2.78;;
52692;SDS011;68218;51.012;-1.648;2024-02-14T12:25:16;12.50;;;2.88;;
52692;SDS011;68218;51.012;-1.648;2024-02-14T12:27:42;11.90;;;2.75;;
52692;SDS011;68218;51.012;-1.648;2024-02-14T12:30:07;14.07;;;3.17;;
52692;SDS011;68218;51.012;-1.648;2024-02-14T12:32:33;11.65;;;3.53;;
52692;SDS011;68218;51.012;-1.648;2024-02-14T12:34:59;12.57;;;2.70;;
52692;SDS011;68218;51.012;-1.648;2024-02-14T12:37:25;15.48;;;2.53;;
52692;SDS011;68218;51.012;-1.648;2024-02-14T12:39:50;13.73;;;3.20;;
52692;SDS011;68218;51.012;-1.648;2024-02-14T12:42:16;15.73;;;3.35;;
52692;SDS011;68218;51.012;-1.648;2024-02-14T12:44:43;13.80;;;2.60;;
52692;SDS011;68218;51.012;-1.648;2024-02-14T12:47:08;12.27;;;2.38;;
52692;SDS011;68218;51.012;-1.648;2024-02-14T12:49:34;14.18;;;2.50;;
52692;SDS011;68218;51.012;-1.648;2024-02-14T12:51:59;10.85;;;2.50;;
52692;SDS011;68218;51.012;-1.648;2024-02-14T12:54:25;8.00;;;2.13;;
52692;SDS011;68218;51.012;-1.648;2024-02-14T12:56:51;9.18;;;2.33;;
52692;SDS011;68218;51.012;-1.648;2024-02-14T12:59:17;11.27;;;2.10;;
52692;SDS011;68218;51.012;-1.648;2024-02-14T13:01:43;7.80;;;2.35;;
52692;SDS011;68218;51.012;-1.648;2024-02-14T13:04:09;10.40;;;2.25;;
52692;SDS011;68218;51.012;-1.648;2024-02-14T13:06:34;7.97;;;1.95;;
52692;SDS011;68218;51.012;-1.648;2024-02-14T13:09:01;8.15;;;1.65;;
52692;SDS011;68218;51.012;-1.648;2024-02-14T13:11:27;8.75;;;1.80;;
52692;SDS011;68218;51.012;-1.648;2024-02-14T13:13:53;11.93;;;2.33;;
52692;SDS011;68218;51.012;-1.648;2024-02-14T13:16:19;8.98;;;2.20;;
52692;SDS011;68218;51.012;-1.648;2024-02-14T13:18:44;11.82;;;2.42;;
52692;SDS011;68218;51.012;-1.648;2024-02-14T13:21:10;13.07;;;2.65;;
52692;SDS011;68218;51.012;-1.648;2024-02-14T13:23:35;18.15;;;2.33;;
52692;SDS011;68218;51.012;-1.648;2024-02-14T13:26:00;14.35;;;2.40;;
52692;SDS011;68218;51.012;-1.648;2024-02-14T13:28:28;16.38;;;3.92;;
52692;SDS011;68218;51.012;-1.648;2024-02-14T13:30:54;12.40;;;2.05;;
52692;SDS011;68218;51.012;-1.648;2024-02-14T13:33:19;11.93;;;2.20;;
52692;SDS011;68218;51.012;-1.648;2024-02-14T13:35:45;13.25;;;2.08;;
52692;SDS011;68218;51.012;-1.648;2024-02-14T13:38:10;10.45;;;2.00;;
52692;SDS011;68218;51.012;-1.648;2024-02-14T13:40:36;6.93;;;1.73;;
52692;SDS011;68218;51.012;-1.648;2024-02-14T13:43:01;9.88;;;1.98;;
52692;SDS011;68218;51.012;-1.648;2024-02-14T13:45:26;8.05;;;1.60;;
52692;SDS011;68218;51.012;-1.648;2024-02-14T13:48:05;8.02;;;1.60;;
52692;SDS011;68218;51.012;-1.648;2024-02-14T13:50:32;8.27;;;2.00;;
52692;SDS011;68218;51.012;-1.648;2024-02-14T13:52:57;8.40;;;1.63;;
52692;SDS011;68218;51.012;-1.648;2024-02-14T13:55:23;8.68;;;2.17;;
52692;SDS011;68218;51.012;-1.648;2024-02-14T13:57:49;6.32;;;1.45;;
52692;SDS011;68218;51.012;-1.648;2024-02-14T14:00:15;7.18;;;1.60;;
52692;SDS011;68218;51.012;-1.648;2024-02-14T14:02:40;4.95;;;1.10;;
52692;SDS011;68218;51.012;-1.648;2024-02-14T14:05:09;9.95;;;1.25;;
52692;SDS011;68218;51.012;-1.648;2024-02-14T14:07:38;4.88;;;1.20;;
52692;SDS011;68218;51.012;-1.648;2024-02-14T14:10:04;5.35;;;1.20;;
52692;SDS011;68218;51.012;-1.648;2024-02-14T14:12:30;7.50;;;1.48;;
52692;SDS011;68218;51.012;-1.648;2024-02-14T14:14:56;12.55;;;3.10;;
52692;SDS011;68218;51.012;-1.648;2024-02-14T14:17:21;10.75;;;3.60;;
52692;SDS011;68218;51.012;-1.648;2024-02-14T14:19:47;14.32;;;6.28;;
52692;SDS011;68218;51.012;-1.648;2024-02-14T14:22:12;9.50;;;3.67;;